Weather at John Glenn Columbus International Airport

Public forecast

Using degrees Fahrenheit for public forecast. Weather courtesy of forecast.io.

Current aviation weather report (METAR) for John Glenn Columbus International Airport

Retrieved 2021/09/18 19:51 UTC (27 minutes ago):

KCMH 181951Z 00000KT 10SM FEW065 SCT250 31/15 A3011 RMK AO2 SLP189 T03110150

Aviation forecast (TAF) for John Glenn Columbus International Airport

Retrieved 2021/09/18 18:24 UTC (2 hours ago):

TAF KCMH 181720Z 1818/1918 01004KT P6SM SCT050 FM190000 05003KT P6SM SCT250 FM191500 10004KT P6SM SCT050